createdAt,value
2023-01-13T00:00:14.597Z,97.74
2023-01-13T00:02:17.054Z,97.64
2023-01-13T00:04:18.616Z,97.64
2023-01-13T00:06:25.666Z,97.75
2023-01-13T00:08:27.154Z,97.95
2023-01-13T00:10:29.102Z,98.50
2023-01-13T00:12:30.880Z,98.49
2023-01-13T00:14:38.489Z,98.88
2023-01-13T00:16:40.101Z,98.06
2023-01-13T00:18:42.104Z,97.53
2023-01-13T00:20:43.616Z,97.48
2023-01-13T00:22:45.358Z,97.83
2023-01-13T00:24:46.992Z,98.05
2023-01-13T00:26:48.828Z,98.16
2023-01-13T00:28:51.193Z,98.21
2023-01-13T00:30:52.976Z,97.96
2023-01-13T00:32:54.542Z,97.93
2023-01-13T00:34:56.299Z,98.36
2023-01-13T00:36:58.395Z,97.89
2023-01-13T00:38:59.984Z,97.13
2023-01-13T00:41:06.272Z,97.25
2023-01-13T00:43:23.510Z,96.93
2023-01-13T00:45:25.089Z,97.67
2023-01-13T00:47:26.680Z,97.13
2023-01-13T00:49:28.137Z,96.94
2023-01-13T00:51:29.776Z,96.66
2023-01-13T00:53:36.723Z,96.73
2023-01-13T00:55:38.201Z,96.81
2023-01-13T00:57:40.194Z,97.50
2023-01-13T00:59:41.900Z,96.73
2023-01-13T01:01:43.745Z,96.88
2023-01-13T01:03:48.770Z,96.70
2023-01-13T01:05:50.447Z,96.76
2023-01-13T01:07:52.326Z,96.50
2023-01-13T01:09:53.793Z,96.49
2023-01-13T01:11:55.310Z,96.81
2023-01-13T01:13:59.279Z,96.80
2023-01-13T01:16:06.758Z,96.49
2023-01-13T01:18:08.316Z,96.24
2023-01-13T01:20:10.594Z,96.00
2023-01-13T01:22:12.334Z,95.91
2023-01-13T01:24:14.080Z,95.92
2023-01-13T01:26:26.494Z,95.77
2023-01-13T01:28:29.242Z,96.12
2023-01-13T01:30:30.808Z,96.40
2023-01-13T01:32:34.748Z,96.66
2023-01-13T01:34:36.240Z,96.33
2023-01-13T01:36:39.172Z,96.46
2023-01-13T01:38:40.687Z,96.13
2023-01-13T01:40:42.199Z,96.48
2023-01-13T01:43:02.257Z,96.54
2023-01-13T01:45:22.374Z,95.84
2023-01-13T01:47:26.447Z,96.26
2023-01-13T01:49:32.720Z,96.14
2023-01-13T01:51:41.073Z,95.64
2023-01-13T01:53:43.551Z,95.82
2023-01-13T01:55:45.173Z,95.50
2023-01-13T01:57:57.966Z,95.35
2023-01-13T02:00:00.883Z,95.25
2023-01-13T02:02:02.894Z,95.89
2023-01-13T02:04:23.273Z,95.68
2023-01-13T02:06:25.654Z,95.91
2023-01-13T02:08:27.361Z,96.80
2023-01-13T02:10:30.630Z,96.27
2023-01-13T02:12:33.233Z,96.72
2023-01-13T02:14:35.728Z,96.62
2023-01-13T02:16:44.812Z,96.73
2023-01-13T02:19:07.373Z,95.97
2023-01-13T02:21:40.048Z,95.77
2023-01-13T02:27:57.868Z,95.70
2023-01-13T02:30:31.321Z,95.54
2023-01-13T02:32:40.416Z,95.31
2023-01-13T02:34:51.798Z,95.96
2023-01-13T02:36:57.751Z,95.19
2023-01-13T02:39:22.067Z,95.24
2023-01-13T02:41:48.766Z,94.84
2023-01-13T02:44:07.176Z,94.19
2023-01-13T02:46:15.314Z,94.65
2023-01-13T02:48:20.364Z,94.78
2023-01-13T02:50:35.773Z,94.25
2023-01-13T02:52:48.706Z,94.78
2023-01-13T02:54:57.377Z,93.71
2023-01-13T02:57:01.058Z,94.07
2023-01-13T02:59:04.049Z,94.49
2023-01-13T03:01:05.666Z,94.38
2023-01-13T03:03:07.734Z,94.23
2023-01-13T03:05:14.821Z,94.55
2023-01-13T03:07:28.440Z,94.18
2023-01-13T03:09:39.825Z,94.37
2023-01-13T03:12:20.312Z,93.98
2023-01-13T03:14:30.565Z,93.60
2023-01-13T03:16:48.180Z,93.74
2023-01-13T03:18:58.898Z,93.31
2023-01-13T03:21:26.621Z,93.71
2023-01-13T03:23:35.980Z,93.12
2023-01-13T03:25:44.211Z,93.33
2023-01-13T03:27:52.179Z,93.54
2023-01-13T03:30:01.553Z,93.83
2023-01-13T03:32:15.100Z,93.98
2023-01-13T03:34:23.396Z,93.99
2023-01-13T03:36:28.168Z,93.42
2023-01-13T03:38:36.575Z,93.71
2023-01-13T03:41:05.372Z,93.97
2023-01-13T03:43:31.912Z,93.82
2023-01-13T03:45:36.155Z,94.43
2023-01-13T03:47:57.963Z,93.62
2023-01-13T03:50:19.944Z,93.85
2023-01-13T03:52:31.031Z,93.58
2023-01-13T03:54:38.030Z,93.60
2023-01-13T03:56:44.441Z,93.48
2023-01-13T03:58:49.145Z,94.23
2023-01-13T04:00:59.927Z,93.36
2023-01-13T04:03:09.525Z,93.29
2023-01-13T04:05:11.508Z,93.71
2023-01-13T04:07:32.211Z,94.20
2023-01-13T04:09:45.004Z,95.16
2023-01-13T04:11:51.699Z,95.05
2023-01-13T04:13:55.114Z,95.23
2023-01-13T04:15:56.940Z,95.25
2023-01-13T04:18:11.608Z,94.57
2023-01-13T04:20:13.078Z,94.85
2023-01-13T04:22:14.599Z,95.14
2023-01-13T04:24:16.216Z,96.06
2023-01-13T04:26:19.805Z,95.91
2023-01-13T04:28:21.958Z,96.81
2023-01-13T04:30:23.799Z,97.50
2023-01-13T04:32:25.518Z,97.42
2023-01-13T04:34:28.473Z,96.64
2023-01-13T04:36:30.149Z,96.88
2023-01-13T04:38:32.208Z,96.52
2023-01-13T04:40:33.954Z,96.33
2023-01-13T04:42:35.494Z,95.62
2023-01-13T04:44:37.237Z,95.92
2023-01-13T04:46:38.859Z,95.60
2023-01-13T04:48:40.416Z,95.28
2023-01-13T04:50:42.492Z,95.55
2023-01-13T04:52:43.978Z,94.78
2023-01-13T04:54:45.456Z,95.41
2023-01-13T04:56:47.084Z,95.66
2023-01-13T04:58:48.629Z,96.26
2023-01-13T05:00:51.759Z,95.81
2023-01-13T05:02:53.784Z,96.29
2023-01-13T05:04:55.576Z,96.61
2023-01-13T05:06:58.635Z,95.92
2023-01-13T05:09:00.181Z,96.22
2023-01-13T05:11:01.725Z,96.14
2023-01-13T05:13:22.252Z,95.94
2023-01-13T05:15:42.471Z,95.68
2023-01-13T05:17:44.294Z,94.94
2023-01-13T05:19:45.956Z,95.60
2023-01-13T05:22:06.340Z,95.49
2023-01-13T05:24:29.786Z,94.99
2023-01-13T05:26:31.971Z,95.30
2023-01-13T05:28:34.122Z,94.92
2023-01-13T05:30:44.214Z,94.64
2023-01-13T05:32:45.940Z,95.08
2023-01-13T05:34:47.831Z,94.37
2023-01-13T05:36:49.901Z,94.49
2023-01-13T05:38:51.717Z,94.96
2023-01-13T05:41:11.971Z,95.08
2023-01-13T05:43:21.731Z,94.89
2023-01-13T05:45:23.971Z,95.20
2023-01-13T05:47:25.488Z,94.93
2023-01-13T05:49:27.063Z,94.92
2023-01-13T05:51:28.647Z,96.06
2023-01-13T05:53:31.245Z,96.32
2023-01-13T05:55:32.687Z,95.83
2023-01-13T05:57:34.267Z,96.87
2023-01-13T05:59:35.806Z,96.53
2023-01-13T06:01:37.475Z,96.40
2023-01-13T06:03:38.999Z,97.17
2023-01-13T06:05:40.562Z,96.56
2023-01-13T06:07:42.168Z,97.17
2023-01-13T06:09:43.744Z,97.65
2023-01-13T06:11:46.409Z,98.55
2023-01-13T06:13:48.061Z,98.48
2023-01-13T06:15:49.606Z,97.86
2023-01-13T06:17:51.487Z,97.78
2023-01-13T06:19:52.997Z,98.06
2023-01-13T06:21:57.719Z,98.99
2023-01-13T06:23:59.514Z,99.18
2023-01-13T06:26:16.695Z,99.34
2023-01-13T06:28:18.592Z,99.38
2023-01-13T06:30:20.212Z,100.00
2023-01-13T06:32:27.952Z,97.22
2023-01-13T06:34:29.628Z,97.63
2023-01-13T06:36:37.944Z,97.67
2023-01-13T06:38:45.446Z,96.21
2023-01-13T06:40:47.343Z,96.67
2023-01-13T06:43:07.619Z,96.37
2023-01-13T06:45:09.701Z,95.87
2023-01-13T06:47:11.419Z,96.83
2023-01-13T06:49:12.954Z,97.95
2023-01-13T06:51:14.583Z,98.26
2023-01-13T06:53:16.415Z,98.02
2023-01-13T06:55:18.262Z,98.21
2023-01-13T06:57:19.786Z,98.99
2023-01-13T06:59:22.436Z,98.05
2023-01-13T07:01:24.011Z,98.28
2023-01-13T07:03:25.642Z,97.70
2023-01-13T07:05:27.124Z,98.30
2023-01-13T07:07:29.404Z,98.87
2023-01-13T07:09:30.951Z,97.99
2023-01-13T07:11:32.623Z,98.11
2023-01-13T07:13:55.864Z,98.09
2023-01-13T07:15:59.667Z,97.52
2023-01-13T07:18:02.216Z,96.83
2023-01-13T07:20:04.087Z,97.86
2023-01-13T07:22:05.571Z,94.83
2023-01-13T07:24:07.112Z,94.26
2023-01-13T07:26:10.543Z,95.41
2023-01-13T07:28:12.539Z,94.98
2023-01-13T07:30:14.739Z,95.92
2023-01-13T07:32:16.377Z,95.20
2023-01-13T07:34:17.910Z,96.16
2023-01-13T07:36:19.443Z,95.30
2023-01-13T07:38:21.345Z,95.12
2023-01-13T07:40:23.026Z,95.69
2023-01-13T07:42:43.271Z,95.03
2023-01-13T07:45:03.725Z,95.68
2023-01-13T07:47:06.018Z,96.05
2023-01-13T07:49:08.428Z,96.19
2023-01-13T07:51:11.928Z,95.98
2023-01-13T07:53:13.501Z,96.00
2023-01-13T07:55:34.056Z,95.46
2023-01-13T07:57:35.555Z,95.78
2023-01-13T07:59:37.746Z,96.09
2023-01-13T08:01:39.827Z,96.83
2023-01-13T08:03:41.486Z,96.85
2023-01-13T08:05:43.093Z,97.71
2023-01-13T08:07:44.635Z,96.80
2023-01-13T08:09:46.436Z,97.44
2023-01-13T08:12:07.986Z,97.45
2023-01-13T08:14:09.700Z,97.27
2023-01-13T08:16:14.301Z,97.46
2023-01-13T08:18:19.608Z,97.07
2023-01-13T08:20:21.191Z,96.44
2023-01-13T08:22:22.777Z,95.42
2023-01-13T08:24:24.453Z,95.56
2023-01-13T08:26:26.115Z,95.18
2023-01-13T08:28:27.794Z,95.62
2023-01-13T08:30:29.624Z,95.00
2023-01-13T08:32:31.664Z,93.86
2023-01-13T08:34:33.210Z,93.85
2023-01-13T08:36:34.793Z,93.87
2023-01-13T08:38:37.759Z,94.37
2023-01-13T08:40:40.524Z,95.42
2023-01-13T08:42:42.175Z,95.37
2023-01-13T08:44:43.786Z,95.08
2023-01-13T08:46:46.671Z,95.27
2023-01-13T08:48:48.204Z,95.21
2023-01-13T08:50:49.769Z,95.31
2023-01-13T08:52:51.309Z,95.83
2023-01-13T08:54:52.886Z,96.07
2023-01-13T08:56:54.504Z,96.25
2023-01-13T08:58:59.807Z,96.47
2023-01-13T09:01:05.675Z,96.49
2023-01-13T09:03:07.294Z,95.99
2023-01-13T09:05:10.528Z,96.21
2023-01-13T09:07:12.589Z,96.08
2023-01-13T09:09:14.611Z,95.46
2023-01-13T09:11:41.140Z,95.51
2023-01-13T09:13:42.629Z,95.83
2023-01-13T09:15:45.493Z,95.69
2023-01-13T09:17:47.829Z,96.37
2023-01-13T09:19:49.757Z,95.30
2023-01-13T09:21:52.512Z,95.48
2023-01-13T09:23:54.139Z,95.05
2023-01-13T09:25:56.054Z,96.01
2023-01-13T09:27:58.123Z,94.64
2023-01-13T09:30:00.188Z,95.57
2023-01-13T09:32:01.923Z,95.57
2023-01-13T09:34:24.033Z,94.56
2023-01-13T09:36:25.600Z,94.89
2023-01-13T09:38:27.705Z,94.17
2023-01-13T09:40:29.275Z,94.90
2023-01-13T09:43:01.991Z,95.96
2023-01-13T09:45:50.291Z,95.37
2023-01-13T09:48:08.780Z,93.92
2023-01-13T09:50:41.580Z,93.22
2023-01-13T09:52:43.312Z,94.10
2023-01-13T09:55:06.004Z,92.78
2023-01-13T09:57:11.045Z,92.26
2023-01-13T09:59:13.126Z,91.74
2023-01-13T10:01:18.850Z,90.92
2023-01-13T10:03:28.566Z,91.41
2023-01-13T10:05:44.475Z,92.34
2023-01-13T10:07:54.448Z,91.58
2023-01-13T10:09:59.011Z,91.83
2023-01-13T10:12:20.750Z,91.69
2023-01-13T10:14:48.220Z,92.40
2023-01-13T10:17:15.550Z,91.81
2023-01-13T10:19:29.187Z,90.60
2023-01-13T10:22:05.292Z,89.51
2023-01-13T10:24:18.697Z,88.31
2023-01-13T10:26:34.219Z,88.19
2023-01-13T10:28:36.069Z,89.37
2023-01-13T10:30:42.083Z,87.44
2023-01-13T10:32:47.679Z,87.57
2023-01-13T10:34:51.838Z,88.82
2023-01-13T10:37:06.268Z,87.06
2023-01-13T10:39:11.044Z,87.55
2023-01-13T10:41:15.413Z,86.10
2023-01-13T10:43:17.094Z,84.98
2023-01-13T10:45:24.948Z,86.71
2023-01-13T10:47:36.470Z,86.44
2023-01-13T10:49:38.929Z,85.28
2023-01-13T10:51:40.404Z,85.86
2023-01-13T10:53:55.798Z,83.21
2023-01-13T10:56:00.561Z,80.86
2023-01-13T10:58:18.289Z,81.37
2023-01-13T11:00:28.974Z,79.36
2023-01-13T11:02:33.014Z,75.42
2023-01-13T11:04:40.311Z,75.10
2023-01-13T11:06:47.131Z,70.73
2023-01-13T11:08:51.033Z,68.34
2023-01-13T11:10:58.924Z,66.99
2023-01-13T11:13:09.596Z,70.27
2023-01-13T11:15:19.046Z,72.99
2023-01-13T11:17:32.718Z,73.72
2023-01-13T11:19:38.048Z,74.84
2023-01-13T11:21:51.055Z,76.11
2023-01-13T11:24:18.639Z,81.42
2023-01-13T11:26:40.762Z,79.37
2023-01-13T11:28:53.005Z,79.98
2023-01-13T11:31:08.403Z,79.65
2023-01-13T11:33:09.951Z,81.86
2023-01-13T11:35:20.492Z,81.55
2023-01-13T11:37:28.823Z,80.21
2023-01-13T11:39:47.619Z,81.57
2023-01-13T11:42:20.923Z,81.29
2023-01-13T11:44:35.965Z,79.41
2023-01-13T11:46:37.690Z,80.76
2023-01-13T11:48:42.366Z,81.31
2023-01-13T11:50:58.791Z,84.07
2023-01-13T11:53:12.063Z,82.67
2023-01-13T11:55:26.221Z,84.19
2023-01-13T11:57:51.864Z,80.50
2023-01-13T12:00:14.410Z,81.36
2023-01-13T12:02:49.687Z,80.61
2023-01-13T12:05:19.147Z,80.62
2023-01-13T12:07:34.330Z,80.60
2023-01-13T12:10:14.693Z,77.92
2023-01-13T12:12:57.843Z,78.69
2023-01-13T12:15:27.997Z,78.59
2023-01-13T12:18:09.927Z,77.87
2023-01-13T12:20:39.354Z,79.77
2023-01-13T12:22:43.465Z,77.90
2023-01-13T12:24:55.428Z,79.11
2023-01-13T12:27:01.724Z,79.59
2023-01-13T12:29:07.514Z,78.25
2023-01-13T12:31:10.028Z,78.64
2023-01-13T12:33:28.094Z,77.34
2023-01-13T12:35:39.706Z,78.63
2023-01-13T12:38:07.619Z,78.45
2023-01-13T12:43:56.203Z,75.64
2023-01-13T12:46:21.106Z,74.09
2023-01-13T12:48:57.306Z,73.42
2023-01-13T12:51:01.187Z,73.56
2023-01-13T12:53:34.618Z,73.60
2023-01-13T12:55:36.392Z,72.80
2023-01-13T12:57:39.421Z,72.25
2023-01-13T12:59:41.455Z,74.16
2023-01-13T13:01:44.256Z,73.82
2023-01-13T13:04:09.378Z,73.82
2023-01-13T13:06:22.251Z,74.63
2023-01-13T13:08:41.366Z,74.35
2023-01-13T13:17:11.213Z,75.64
2023-01-13T13:19:19.904Z,74.47
2023-01-13T13:21:22.035Z,75.86
2023-01-13T13:23:29.039Z,74.82
2023-01-13T13:25:30.793Z,75.43
2023-01-13T13:27:38.187Z,74.63
2023-01-13T13:30:08.692Z,74.01
2023-01-13T13:32:32.882Z,75.11
2023-01-13T13:34:53.701Z,77.37
2023-01-13T13:37:23.348Z,74.79
2023-01-13T13:39:47.333Z,75.20
2023-01-13T13:42:15.877Z,75.46
2023-01-13T13:44:52.134Z,76.58
2023-01-13T13:47:00.077Z,77.21
2023-01-13T13:49:02.819Z,77.18
2023-01-13T13:51:31.455Z,76.71
2023-01-13T13:53:35.170Z,77.35
2023-01-13T13:55:38.448Z,78.67
2023-01-13T13:57:42.487Z,79.99
2023-01-13T13:59:44.551Z,79.70
2023-01-13T14:01:51.874Z,80.36
2023-01-13T14:04:14.288Z,80.68
2023-01-13T14:06:24.241Z,78.93
2023-01-13T14:08:28.301Z,79.78
2023-01-13T14:10:36.248Z,80.09
2023-01-13T14:12:38.640Z,80.43
2023-01-13T14:14:43.876Z,79.38
2023-01-13T14:16:46.451Z,79.68
2023-01-13T14:18:48.601Z,77.71
2023-01-13T14:20:54.999Z,80.02
2023-01-13T14:23:01.371Z,80.86
2023-01-13T14:25:03.277Z,81.66
2023-01-13T14:27:18.875Z,83.42
2023-01-13T14:29:24.234Z,85.44
2023-01-13T14:31:26.523Z,87.69
2023-01-13T14:33:41.384Z,86.85
2023-01-13T14:36:01.566Z,86.61
2023-01-13T14:38:04.342Z,87.13
2023-01-13T14:40:06.834Z,86.54
2023-01-13T14:42:14.379Z,86.34
2023-01-13T14:44:25.657Z,87.59
2023-01-13T14:46:45.157Z,86.89
2023-01-13T14:48:47.941Z,87.18
2023-01-13T14:50:49.805Z,87.39
2023-01-13T14:52:55.611Z,87.41
2023-01-13T14:55:10.119Z,87.69
2023-01-13T14:57:27.908Z,88.04
2023-01-13T14:59:57.234Z,88.25
2023-01-13T15:01:59.982Z,88.55
2023-01-13T15:04:38.161Z,89.23
2023-01-13T15:06:39.840Z,89.41
2023-01-13T15:08:41.478Z,89.50
2023-01-13T15:10:59.717Z,89.88
2023-01-13T15:13:05.638Z,89.13
2023-01-13T15:15:24.872Z,89.41
2023-01-13T15:17:26.793Z,88.77
2023-01-13T15:19:28.580Z,89.62
2023-01-13T15:21:30.441Z,89.65
2023-01-13T15:23:32.370Z,90.20
2023-01-13T15:25:37.131Z,89.96
2023-01-13T15:27:45.830Z,89.69
2023-01-13T15:29:50.399Z,90.29
2023-01-13T15:31:54.263Z,89.89
2023-01-13T15:33:56.560Z,89.06
2023-01-13T15:36:31.192Z,89.24
2023-01-13T15:38:33.007Z,88.46
2023-01-13T15:40:37.128Z,89.59
2023-01-13T15:46:36.686Z,89.09
2023-01-13T15:51:15.633Z,89.32
2023-01-13T16:02:08.437Z,89.77
2023-01-13T16:04:30.805Z,90.96
2023-01-13T16:06:52.887Z,91.01
2023-01-13T16:09:16.769Z,91.62
2023-01-13T16:11:39.111Z,91.82
2023-01-13T16:18:23.458Z,89.92
2023-01-13T16:20:46.530Z,90.19
2023-01-13T16:23:08.360Z,90.11
2023-01-13T16:25:30.243Z,89.50
2023-01-13T16:27:52.521Z,89.24
2023-01-13T16:30:30.539Z,89.07
2023-01-13T16:32:52.975Z,89.02
2023-01-13T16:35:15.205Z,89.11
2023-01-13T16:37:37.154Z,88.64
2023-01-13T16:39:59.127Z,87.86
2023-01-13T16:42:21.627Z,88.28
2023-01-13T16:44:44.659Z,88.31
2023-01-13T16:47:11.253Z,87.95
2023-01-13T16:49:34.255Z,87.81
2023-01-13T16:51:56.108Z,87.41
2023-01-13T16:54:17.984Z,88.39
2023-01-13T16:56:40.469Z,87.45
2023-01-13T16:59:08.651Z,87.98
2023-01-13T17:01:32.598Z,87.96
2023-01-13T17:03:58.551Z,87.08
2023-01-13T17:06:51.691Z,87.62
2023-01-13T17:09:19.611Z,88.24
2023-01-13T17:11:41.462Z,86.84
2023-01-13T17:14:18.210Z,86.58
2023-01-13T17:16:41.556Z,87.53
2023-01-13T17:19:04.040Z,87.60
2023-01-13T17:21:25.989Z,87.29
2023-01-13T17:23:47.944Z,86.91
2023-01-13T17:26:32.315Z,87.33
2023-01-13T17:28:54.427Z,88.36
2023-01-13T17:31:17.180Z,88.03
2023-01-13T17:33:39.097Z,87.39
2023-01-13T17:36:01.722Z,86.97
2023-01-13T17:38:23.994Z,87.40
2023-01-13T17:40:46.436Z,87.95
2023-01-13T17:43:08.898Z,87.45
2023-01-13T17:45:30.927Z,87.82
2023-01-13T17:47:57.773Z,86.86
2023-01-13T17:50:19.668Z,87.14
2023-01-13T17:52:41.704Z,87.83
2023-01-13T17:55:03.907Z,87.29
2023-01-13T17:57:25.869Z,86.74
2023-01-13T17:59:48.060Z,87.03
2023-01-13T18:02:12.694Z,87.48
2023-01-13T18:04:34.744Z,86.55
2023-01-13T18:06:57.050Z,86.90
2023-01-13T18:09:19.388Z,86.16
2023-01-13T18:11:22.757Z,86.07
2023-01-13T18:13:25.348Z,85.62
2023-01-13T18:15:26.920Z,86.55
2023-01-13T18:17:28.623Z,86.15
2023-01-13T18:19:49.020Z,86.10
2023-01-13T18:22:09.428Z,85.65
2023-01-13T18:24:34.900Z,86.16
2023-01-13T18:26:55.487Z,86.14
2023-01-13T18:28:57.054Z,85.50
2023-01-13T18:30:58.658Z,85.25
2023-01-13T18:33:00.281Z,85.25
2023-01-13T18:35:06.982Z,84.95
2023-01-13T18:37:10.568Z,84.89
2023-01-13T18:39:14.075Z,85.65
2023-01-13T18:41:35.024Z,84.30
2023-01-13T18:43:36.832Z,84.91
2023-01-13T18:45:38.338Z,84.35
2023-01-13T18:47:42.111Z,84.30
2023-01-13T18:49:43.913Z,84.77
2023-01-13T18:51:45.555Z,85.19
2023-01-13T18:53:47.095Z,85.23
2023-01-13T18:55:48.683Z,84.71
2023-01-13T18:57:51.349Z,85.02
2023-01-13T18:59:52.871Z,84.53
2023-01-13T19:01:54.761Z,84.49
2023-01-13T19:04:02.634Z,85.01
2023-01-13T19:06:06.183Z,84.58
2023-01-13T19:08:07.797Z,84.36
2023-01-13T19:10:10.471Z,84.84
2023-01-13T19:12:14.578Z,85.16
2023-01-13T19:14:34.219Z,84.89
2023-01-13T19:16:35.780Z,84.15
2023-01-13T19:18:37.873Z,84.39
2023-01-13T19:20:40.109Z,84.02
2023-01-13T19:22:41.866Z,84.65
2023-01-13T19:24:43.643Z,84.58
2023-01-13T19:26:48.535Z,84.60
2023-01-13T19:28:50.533Z,84.56
2023-01-13T19:30:52.569Z,84.87
2023-01-13T19:32:54.107Z,84.50
2023-01-13T19:34:59.003Z,84.42
2023-01-13T19:37:00.613Z,84.69
2023-01-13T19:39:02.182Z,83.72
2023-01-13T19:41:11.508Z,84.43
2023-01-13T19:43:31.613Z,84.72
2023-01-13T19:45:35.193Z,85.15
2023-01-13T19:47:38.519Z,85.12
2023-01-13T19:49:40.103Z,84.62
2023-01-13T19:51:41.610Z,84.75
2023-01-13T19:53:43.178Z,84.91
2023-01-13T19:55:48.372Z,84.37
2023-01-13T19:57:50.080Z,84.87
2023-01-13T19:59:52.061Z,85.21
2023-01-13T20:01:53.617Z,84.68
2023-01-13T20:03:55.446Z,84.32
2023-01-13T20:06:07.570Z,84.31
2023-01-13T20:08:10.361Z,84.01
2023-01-13T20:10:13.350Z,84.52
2023-01-13T20:12:15.494Z,85.04
2023-01-13T20:14:17.006Z,85.09
2023-01-13T20:16:18.773Z,84.72
2023-01-13T20:18:20.366Z,86.37
2023-01-13T20:20:41.308Z,87.15
2023-01-13T20:22:43.241Z,88.47
2023-01-13T20:24:44.711Z,88.14
2023-01-13T20:26:47.282Z,88.75
2023-01-13T20:28:49.089Z,88.49
2023-01-13T20:30:50.719Z,88.51
2023-01-13T20:32:52.675Z,88.07
2023-01-13T20:34:54.226Z,89.34
2023-01-13T20:36:55.903Z,88.65
2023-01-13T20:38:59.300Z,88.48
2023-01-13T20:41:23.899Z,88.14
2023-01-13T20:43:28.077Z,87.09
2023-01-13T20:45:30.016Z,87.37
2023-01-13T20:47:31.661Z,87.26
2023-01-13T20:49:34.409Z,87.39
2023-01-13T20:51:36.451Z,86.19
2023-01-13T20:53:38.131Z,86.44
2023-01-13T20:55:40.101Z,86.00
2023-01-13T20:57:41.801Z,85.72
2023-01-13T20:59:43.379Z,85.79
2023-01-13T21:01:45.249Z,86.04
2023-01-13T21:03:49.605Z,86.64
2023-01-13T21:05:51.093Z,86.32
2023-01-13T21:07:52.681Z,86.39
2023-01-13T21:09:54.222Z,85.78
2023-01-13T21:12:14.281Z,85.18
2023-01-13T21:14:37.812Z,85.30
2023-01-13T21:16:39.510Z,86.17
2023-01-13T21:19:00.254Z,86.22
2023-01-13T21:21:11.553Z,84.88
2023-01-13T21:23:13.191Z,84.85
2023-01-13T21:25:16.063Z,85.95
2023-01-13T21:27:17.761Z,85.71
2023-01-13T21:29:19.865Z,85.89
2023-01-13T21:31:21.873Z,86.22
2023-01-13T21:33:23.477Z,85.85
2023-01-13T21:35:25.041Z,85.22
2023-01-13T21:37:27.049Z,84.95
2023-01-13T21:39:29.542Z,85.82
2023-01-13T21:41:49.745Z,85.75
2023-01-13T21:44:10.322Z,85.56
2023-01-13T21:46:32.456Z,85.57
2023-01-13T21:48:34.017Z,85.76
2023-01-13T21:50:37.872Z,85.94
2023-01-13T21:52:42.575Z,85.59
2023-01-13T21:55:02.884Z,85.24
2023-01-13T21:57:05.081Z,85.32
2023-01-13T21:59:06.941Z,85.66
2023-01-13T22:01:09.832Z,85.65
2023-01-13T22:03:14.965Z,86.19
2023-01-13T22:05:19.654Z,85.91
2023-01-13T22:07:21.339Z,85.42
2023-01-13T22:09:23.190Z,86.12
2023-01-13T22:11:24.675Z,86.18
2023-01-13T22:13:47.592Z,86.32
2023-01-13T22:15:50.135Z,86.26
2023-01-13T22:17:53.596Z,85.95
2023-01-13T22:19:58.908Z,86.44
2023-01-13T22:22:00.680Z,86.81
2023-01-13T22:24:02.537Z,86.49
2023-01-13T22:26:05.624Z,86.06
2023-01-13T22:28:09.251Z,86.40
2023-01-13T22:30:13.869Z,87.25
2023-01-13T22:32:16.773Z,86.85
2023-01-13T22:34:18.327Z,86.73
2023-01-13T22:36:20.327Z,87.50
2023-01-13T22:38:21.939Z,87.35
2023-01-13T22:40:23.685Z,87.50
2023-01-13T22:42:25.923Z,87.59
2023-01-13T22:44:27.468Z,86.32
2023-01-13T22:46:29.016Z,86.74
2023-01-13T22:48:30.626Z,86.97
2023-01-13T22:50:33.947Z,87.09
2023-01-13T22:52:36.625Z,88.18
2023-01-13T22:54:38.277Z,86.81
2023-01-13T22:56:40.810Z,86.95
2023-01-13T22:58:43.219Z,87.02
2023-01-13T23:00:44.800Z,86.73
2023-01-13T23:02:46.831Z,86.70
2023-01-13T23:04:48.804Z,86.72
2023-01-13T23:06:50.960Z,87.03
2023-01-13T23:08:53.211Z,86.92
2023-01-13T23:11:06.158Z,87.29
2023-01-13T23:13:08.877Z,87.18
2023-01-13T23:15:10.950Z,87.22
2023-01-13T23:17:12.689Z,87.00
2023-01-13T23:19:14.566Z,86.97
2023-01-13T23:21:22.413Z,87.67
2023-01-13T23:23:24.808Z,87.07
2023-01-13T23:25:26.858Z,87.89
2023-01-13T23:27:28.428Z,88.19
2023-01-13T23:29:30.199Z,89.17
2023-01-13T23:31:32.041Z,90.06
2023-01-13T23:33:34.569Z,90.46
2023-01-13T23:35:36.053Z,92.04
2023-01-13T23:37:37.633Z,92.02
2023-01-13T23:39:40.205Z,92.09
2023-01-13T23:41:41.730Z,93.17
2023-01-13T23:43:43.928Z,93.46
2023-01-13T23:45:45.551Z,94.25
2023-01-13T23:47:47.180Z,93.85
2023-01-13T23:49:48.732Z,94.74
2023-01-13T23:51:51.694Z,94.16
2023-01-13T23:53:54.183Z,94.42
2023-01-13T23:55:57.008Z,93.78
2023-01-13T23:57:58.571Z,94.20
